sensor_id;sensor_type;location;lat;lon;timestamp;P1;durP1;ratioP1;P2;durP2;ratioP2
57443;SDS011;43289;52.962;6.196;2022-10-04T00:09:42;16.27;;;7.35;;
57443;SDS011;43289;52.962;6.196;2022-10-04T00:14:51;13.80;;;7.50;;
57443;SDS011;43289;52.962;6.196;2022-10-04T00:17:22;13.40;;;7.07;;
57443;SDS011;43289;52.962;6.196;2022-10-04T00:19:49;12.27;;;7.13;;
57443;SDS011;43289;52.962;6.196;2022-10-04T00:22:17;13.27;;;7.18;;
57443;SDS011;43289;52.962;6.196;2022-10-04T00:27:28;12.75;;;7.55;;
57443;SDS011;43289;52.962;6.196;2022-10-04T00:32:28;11.63;;;7.00;;
57443;SDS011;43289;52.962;6.196;2022-10-04T00:34:54;15.35;;;7.68;;
57443;SDS011;43289;52.962;6.196;2022-10-04T00:37:21;11.00;;;7.43;;
57443;SDS011;43289;52.962;6.196;2022-10-04T00:40:09;14.13;;;7.70;;
57443;SDS011;43289;52.962;6.196;2022-10-04T00:42:44;12.80;;;7.38;;
57443;SDS011;43289;52.962;6.196;2022-10-04T00:52:43;14.00;;;8.48;;
57443;SDS011;43289;52.962;6.196;2022-10-04T00:55:09;14.68;;;7.63;;
57443;SDS011;43289;52.962;6.196;2022-10-04T00:57:44;12.63;;;8.23;;
57443;SDS011;43289;52.962;6.196;2022-10-04T01:00:16;11.73;;;7.75;;
57443;SDS011;43289;52.962;6.196;2022-10-04T01:05:15;10.65;;;7.70;;
57443;SDS011;43289;52.962;6.196;2022-10-04T01:07:56;13.48;;;7.47;;
57443;SDS011;43289;52.962;6.196;2022-10-04T01:10:40;12.15;;;8.60;;
57443;SDS011;43289;52.962;6.196;2022-10-04T01:16:01;12.73;;;8.02;;
57443;SDS011;43289;52.962;6.196;2022-10-04T01:18:32;13.15;;;8.10;;
57443;SDS011;43289;52.962;6.196;2022-10-04T01:29:01;16.70;;;8.07;;
57443;SDS011;43289;52.962;6.196;2022-10-04T01:31:30;13.75;;;9.02;;
57443;SDS011;43289;52.962;6.196;2022-10-04T01:33:56;17.73;;;9.35;;
57443;SDS011;43289;52.962;6.196;2022-10-04T01:36:24;17.85;;;8.55;;
57443;SDS011;43289;52.962;6.196;2022-10-04T01:38:51;16.05;;;9.38;;
57443;SDS011;43289;52.962;6.196;2022-10-04T01:41:19;13.70;;;7.95;;
57443;SDS011;43289;52.962;6.196;2022-10-04T01:43:48;12.35;;;7.65;;
57443;SDS011;43289;52.962;6.196;2022-10-04T01:46:19;15.90;;;8.15;;
57443;SDS011;43289;52.962;6.196;2022-10-04T01:48:47;17.35;;;8.98;;
57443;SDS011;43289;52.962;6.196;2022-10-04T01:51:15;17.38;;;8.35;;
57443;SDS011;43289;52.962;6.196;2022-10-04T01:53:52;12.15;;;8.27;;
57443;SDS011;43289;52.962;6.196;2022-10-04T01:56:23;14.75;;;8.68;;
57443;SDS011;43289;52.962;6.196;2022-10-04T01:58:51;12.02;;;7.88;;
57443;SDS011;43289;52.962;6.196;2022-10-04T02:01:36;13.63;;;8.05;;
57443;SDS011;43289;52.962;6.196;2022-10-04T02:04:14;12.70;;;7.47;;
57443;SDS011;43289;52.962;6.196;2022-10-04T02:06:42;14.00;;;7.72;;
57443;SDS011;43289;52.962;6.196;2022-10-04T02:09:11;17.08;;;8.35;;
57443;SDS011;43289;52.962;6.196;2022-10-04T02:11:39;14.60;;;7.95;;
57443;SDS011;43289;52.962;6.196;2022-10-04T02:14:10;16.67;;;7.80;;
57443;SDS011;43289;52.962;6.196;2022-10-04T02:16:40;16.63;;;9.20;;
57443;SDS011;43289;52.962;6.196;2022-10-04T02:19:09;14.55;;;8.63;;
57443;SDS011;43289;52.962;6.196;2022-10-04T02:21:35;15.75;;;8.18;;
57443;SDS011;43289;52.962;6.196;2022-10-04T02:24:02;12.40;;;7.40;;
57443;SDS011;43289;52.962;6.196;2022-10-04T02:26:29;17.13;;;7.65;;
57443;SDS011;43289;52.962;6.196;2022-10-04T02:28:55;17.17;;;8.02;;
57443;SDS011;43289;52.962;6.196;2022-10-04T02:31:22;13.82;;;8.02;;
57443;SDS011;43289;52.962;6.196;2022-10-04T02:34:07;11.88;;;6.38;;
57443;SDS011;43289;52.962;6.196;2022-10-04T02:36:34;16.98;;;6.72;;
57443;SDS011;43289;52.962;6.196;2022-10-04T02:41:33;15.40;;;6.72;;
57443;SDS011;43289;52.962;6.196;2022-10-04T02:44:16;13.05;;;6.70;;
57443;SDS011;43289;52.962;6.196;2022-10-04T02:49:19;14.15;;;7.00;;
57443;SDS011;43289;52.962;6.196;2022-10-04T02:54:44;14.77;;;6.88;;
57443;SDS011;43289;52.962;6.196;2022-10-04T02:57:14;14.75;;;7.32;;
57443;SDS011;43289;52.962;6.196;2022-10-04T02:59:41;12.30;;;6.88;;
57443;SDS011;43289;52.962;6.196;2022-10-04T03:02:24;14.18;;;7.30;;
57443;SDS011;43289;52.962;6.196;2022-10-04T03:04:50;14.35;;;7.30;;
57443;SDS011;43289;52.962;6.196;2022-10-04T03:07:17;14.82;;;7.25;;
57443;SDS011;43289;52.962;6.196;2022-10-04T03:09:47;14.18;;;7.65;;
57443;SDS011;43289;52.962;6.196;2022-10-04T03:12:14;12.80;;;7.15;;
57443;SDS011;43289;52.962;6.196;2022-10-04T03:14:40;13.32;;;6.60;;
57443;SDS011;43289;52.962;6.196;2022-10-04T03:17:07;16.50;;;7.10;;
57443;SDS011;43289;52.962;6.196;2022-10-04T03:19:33;12.90;;;6.97;;
57443;SDS011;43289;52.962;6.196;2022-10-04T03:22:05;11.38;;;7.07;;
57443;SDS011;43289;52.962;6.196;2022-10-04T03:24:34;12.48;;;6.45;;
57443;SDS011;43289;52.962;6.196;2022-10-04T03:27:02;13.48;;;6.68;;
57443;SDS011;43289;52.962;6.196;2022-10-04T03:29:30;15.10;;;7.30;;
57443;SDS011;43289;52.962;6.196;2022-10-04T03:31:59;14.25;;;6.53;;
57443;SDS011;43289;52.962;6.196;2022-10-04T03:34:35;10.02;;;6.13;;
57443;SDS011;43289;52.962;6.196;2022-10-04T03:37:02;12.55;;;7.32;;
57443;SDS011;43289;52.962;6.196;2022-10-04T03:39:32;12.93;;;6.40;;
57443;SDS011;43289;52.962;6.196;2022-10-04T03:42:00;12.25;;;7.28;;
57443;SDS011;43289;52.962;6.196;2022-10-04T03:44:28;13.90;;;7.80;;
57443;SDS011;43289;52.962;6.196;2022-10-04T03:46:55;11.95;;;7.13;;
57443;SDS011;43289;52.962;6.196;2022-10-04T03:49:24;13.07;;;6.72;;
57443;SDS011;43289;52.962;6.196;2022-10-04T03:51:54;10.43;;;6.53;;
57443;SDS011;43289;52.962;6.196;2022-10-04T03:54:22;11.15;;;7.18;;
57443;SDS011;43289;52.962;6.196;2022-10-04T03:56:51;11.10;;;7.32;;
57443;SDS011;43289;52.962;6.196;2022-10-04T03:59:18;12.43;;;7.15;;
57443;SDS011;43289;52.962;6.196;2022-10-04T04:02:06;15.43;;;7.93;;
57443;SDS011;43289;52.962;6.196;2022-10-04T04:09:41;16.70;;;8.02;;
57443;SDS011;43289;52.962;6.196;2022-10-04T04:12:09;14.70;;;7.35;;
57443;SDS011;43289;52.962;6.196;2022-10-04T04:14:38;11.88;;;6.93;;
57443;SDS011;43289;52.962;6.196;2022-10-04T04:19:51;11.30;;;7.55;;
57443;SDS011;43289;52.962;6.196;2022-10-04T04:22:18;19.52;;;9.93;;
57443;SDS011;43289;52.962;6.196;2022-10-04T04:24:45;15.30;;;7.35;;
57443;SDS011;43289;52.962;6.196;2022-10-04T04:27:11;13.43;;;9.40;;
57443;SDS011;43289;52.962;6.196;2022-10-04T04:29:46;14.10;;;8.50;;
57443;SDS011;43289;52.962;6.196;2022-10-04T04:34:52;15.15;;;8.85;;
57443;SDS011;43289;52.962;6.196;2022-10-04T04:37:19;12.73;;;8.60;;
57443;SDS011;43289;52.962;6.196;2022-10-04T04:39:47;14.10;;;9.32;;
57443;SDS011;43289;52.962;6.196;2022-10-04T04:42:16;11.95;;;8.55;;
57443;SDS011;43289;52.962;6.196;2022-10-04T04:47:40;17.30;;;8.77;;
57443;SDS011;43289;52.962;6.196;2022-10-04T04:50:15;17.20;;;9.80;;
57443;SDS011;43289;52.962;6.196;2022-10-04T04:52:44;16.30;;;9.75;;
57443;SDS011;43289;52.962;6.196;2022-10-04T04:55:21;15.45;;;9.73;;
57443;SDS011;43289;52.962;6.196;2022-10-04T04:57:48;14.48;;;8.95;;
57443;SDS011;43289;52.962;6.196;2022-10-04T05:00:18;15.20;;;9.75;;
57443;SDS011;43289;52.962;6.196;2022-10-04T05:02:49;13.68;;;9.25;;
57443;SDS011;43289;52.962;6.196;2022-10-04T05:05:20;18.23;;;10.48;;
57443;SDS011;43289;52.962;6.196;2022-10-04T05:10:33;15.52;;;10.15;;
57443;SDS011;43289;52.962;6.196;2022-10-04T05:13:00;17.08;;;10.25;;
57443;SDS011;43289;52.962;6.196;2022-10-04T05:15:33;17.73;;;10.85;;
57443;SDS011;43289;52.962;6.196;2022-10-04T05:18:01;17.95;;;10.65;;
57443;SDS011;43289;52.962;6.196;2022-10-04T05:20:27;14.35;;;10.52;;
57443;SDS011;43289;52.962;6.196;2022-10-04T05:22:55;17.17;;;11.05;;
57443;SDS011;43289;52.962;6.196;2022-10-04T05:25:30;16.67;;;9.55;;
57443;SDS011;43289;52.962;6.196;2022-10-04T05:27:57;16.08;;;10.05;;
57443;SDS011;43289;52.962;6.196;2022-10-04T05:30:30;13.05;;;10.38;;
57443;SDS011;43289;52.962;6.196;2022-10-04T05:33:00;17.70;;;11.55;;
57443;SDS011;43289;52.962;6.196;2022-10-04T05:35:27;23.38;;;11.18;;
57443;SDS011;43289;52.962;6.196;2022-10-04T05:40:26;18.27;;;10.45;;
57443;SDS011;43289;52.962;6.196;2022-10-04T05:42:54;17.55;;;10.25;;
57443;SDS011;43289;52.962;6.196;2022-10-04T05:45:26;20.88;;;10.73;;
57443;SDS011;43289;52.962;6.196;2022-10-04T05:47:53;19.10;;;11.25;;
57443;SDS011;43289;52.962;6.196;2022-10-04T05:53:20;14.90;;;10.87;;
57443;SDS011;43289;52.962;6.196;2022-10-04T05:58:38;16.95;;;10.82;;
57443;SDS011;43289;52.962;6.196;2022-10-04T06:01:33;16.00;;;9.63;;
57443;SDS011;43289;52.962;6.196;2022-10-04T06:06:54;17.73;;;9.88;;
57443;SDS011;43289;52.962;6.196;2022-10-04T06:09:33;16.67;;;9.48;;
57443;SDS011;43289;52.962;6.196;2022-10-04T06:12:07;18.92;;;9.30;;
57443;SDS011;43289;52.962;6.196;2022-10-04T06:22:21;15.38;;;10.65;;
57443;SDS011;43289;52.962;6.196;2022-10-04T06:27:22;21.23;;;11.18;;
57443;SDS011;43289;52.962;6.196;2022-10-04T06:29:54;22.30;;;10.50;;
57443;SDS011;43289;52.962;6.196;2022-10-04T06:32:26;16.05;;;12.10;;
57443;SDS011;43289;52.962;6.196;2022-10-04T06:42:36;21.30;;;11.88;;
57443;SDS011;43289;52.962;6.196;2022-10-04T06:50:48;19.95;;;12.45;;
57443;SDS011;43289;52.962;6.196;2022-10-04T06:53:25;16.73;;;11.80;;
57443;SDS011;43289;52.962;6.196;2022-10-04T06:58:49;18.55;;;13.13;;
57443;SDS011;43289;52.962;6.196;2022-10-04T07:09:15;15.73;;;12.00;;
57443;SDS011;43289;52.962;6.196;2022-10-04T07:11:46;16.20;;;12.50;;
57443;SDS011;43289;52.962;6.196;2022-10-04T07:14:17;19.27;;;12.95;;
57443;SDS011;43289;52.962;6.196;2022-10-04T07:21:39;22.33;;;13.05;;
57443;SDS011;43289;52.962;6.196;2022-10-04T07:24:08;19.90;;;14.63;;
57443;SDS011;43289;52.962;6.196;2022-10-04T07:26:45;22.70;;;13.80;;
57443;SDS011;43289;52.962;6.196;2022-10-04T07:29:16;20.48;;;12.98;;
57443;SDS011;43289;52.962;6.196;2022-10-04T07:31:52;18.77;;;13.07;;
57443;SDS011;43289;52.962;6.196;2022-10-04T07:34:25;22.65;;;14.82;;
57443;SDS011;43289;52.962;6.196;2022-10-04T07:36:58;23.33;;;15.25;;
57443;SDS011;43289;52.962;6.196;2022-10-04T07:39:31;21.85;;;14.77;;
57443;SDS011;43289;52.962;6.196;2022-10-04T07:41:59;21.38;;;13.10;;
57443;SDS011;43289;52.962;6.196;2022-10-04T07:44:35;20.75;;;13.05;;
57443;SDS011;43289;52.962;6.196;2022-10-04T07:47:18;18.17;;;13.32;;
57443;SDS011;43289;52.962;6.196;2022-10-04T07:49:45;17.73;;;13.02;;
57443;SDS011;43289;52.962;6.196;2022-10-04T07:54:42;21.55;;;14.25;;
57443;SDS011;43289;52.962;6.196;2022-10-04T08:00:17;16.83;;;12.88;;
57443;SDS011;43289;52.962;6.196;2022-10-04T08:10:16;16.48;;;12.82;;
57443;SDS011;43289;52.962;6.196;2022-10-04T08:18:09;19.98;;;13.02;;
57443;SDS011;43289;52.962;6.196;2022-10-04T08:23:19;19.67;;;13.07;;
57443;SDS011;43289;52.962;6.196;2022-10-04T08:28:18;18.95;;;12.38;;
57443;SDS011;43289;52.962;6.196;2022-10-04T08:34:05;15.25;;;11.13;;
57443;SDS011;43289;52.962;6.196;2022-10-04T08:36:42;18.00;;;11.20;;
57443;SDS011;43289;52.962;6.196;2022-10-04T08:39:16;15.05;;;9.27;;
57443;SDS011;43289;52.962;6.196;2022-10-04T08:49:49;14.75;;;7.53;;
57443;SDS011;43289;52.962;6.196;2022-10-04T08:52:32;12.30;;;7.50;;
57443;SDS011;43289;52.962;6.196;2022-10-04T08:57:41;14.05;;;8.00;;
57443;SDS011;43289;52.962;6.196;2022-10-04T09:00:12;11.35;;;6.65;;
57443;SDS011;43289;52.962;6.196;2022-10-04T09:11:04;11.52;;;7.38;;
57443;SDS011;43289;52.962;6.196;2022-10-04T09:21:11;11.02;;;7.25;;
57443;SDS011;43289;52.962;6.196;2022-10-04T09:26:19;11.20;;;6.72;;
57443;SDS011;43289;52.962;6.196;2022-10-04T09:31:26;11.40;;;6.85;;
57443;SDS011;43289;52.962;6.196;2022-10-04T09:37:12;13.23;;;7.30;;
57443;SDS011;43289;52.962;6.196;2022-10-04T09:39:45;9.27;;;6.15;;
57443;SDS011;43289;52.962;6.196;2022-10-04T09:44:54;14.35;;;6.53;;
57443;SDS011;43289;52.962;6.196;2022-10-04T09:47:31;11.88;;;6.35;;
57443;SDS011;43289;52.962;6.196;2022-10-04T09:58:22;13.97;;;6.10;;
57443;SDS011;43289;52.962;6.196;2022-10-04T10:01:05;13.25;;;6.85;;
57443;SDS011;43289;52.962;6.196;2022-10-04T10:11:38;8.82;;;6.65;;
57443;SDS011;43289;52.962;6.196;2022-10-04T10:30:17;9.40;;;6.40;;
57443;SDS011;43289;52.962;6.196;2022-10-04T10:32:54;11.70;;;7.15;;
57443;SDS011;43289;52.962;6.196;2022-10-04T10:41:03;10.65;;;6.45;;
57443;SDS011;43289;52.962;6.196;2022-10-04T10:51:46;12.47;;;7.07;;
57443;SDS011;43289;52.962;6.196;2022-10-04T10:57:05;10.38;;;5.82;;
57443;SDS011;43289;52.962;6.196;2022-10-04T10:59:46;12.88;;;6.80;;
57443;SDS011;43289;52.962;6.196;2022-10-04T11:20:50;10.45;;;6.38;;
57443;SDS011;43289;52.962;6.196;2022-10-04T11:34:10;10.73;;;6.75;;
57443;SDS011;43289;52.962;6.196;2022-10-04T11:36:47;8.85;;;6.40;;
57443;SDS011;43289;52.962;6.196;2022-10-04T11:47:02;10.73;;;6.65;;
57443;SDS011;43289;52.962;6.196;2022-10-04T11:50:00;10.50;;;6.72;;
57443;SDS011;43289;52.962;6.196;2022-10-04T11:57:30;11.50;;;6.55;;
57443;SDS011;43289;52.962;6.196;2022-10-04T12:21:53;10.38;;;6.10;;
57443;SDS011;43289;52.962;6.196;2022-10-04T12:35:08;9.48;;;6.35;;
57443;SDS011;43289;52.962;6.196;2022-10-04T12:40:32;10.13;;;6.47;;
57443;SDS011;43289;52.962;6.196;2022-10-04T12:43:17;8.85;;;5.63;;
57443;SDS011;43289;52.962;6.196;2022-10-04T12:45:49;8.90;;;6.18;;
57443;SDS011;43289;52.962;6.196;2022-10-04T12:53:41;10.15;;;5.47;;
57443;SDS011;43289;52.962;6.196;2022-10-04T13:01:44;11.30;;;5.73;;
57443;SDS011;43289;52.962;6.196;2022-10-04T13:04:20;8.15;;;4.80;;
57443;SDS011;43289;52.962;6.196;2022-10-04T13:06:52;7.07;;;5.10;;
57443;SDS011;43289;52.962;6.196;2022-10-04T13:14:42;8.15;;;4.95;;
57443;SDS011;43289;52.962;6.196;2022-10-04T13:17:14;9.70;;;5.93;;
57443;SDS011;43289;52.962;6.196;2022-10-04T13:19:47;9.10;;;5.10;;
57443;SDS011;43289;52.962;6.196;2022-10-04T13:25:25;9.20;;;5.40;;
57443;SDS011;43289;52.962;6.196;2022-10-04T13:32:51;9.23;;;5.70;;
57443;SDS011;43289;52.962;6.196;2022-10-04T14:01:41;7.18;;;3.60;;
57443;SDS011;43289;52.962;6.196;2022-10-04T14:06:54;6.90;;;4.05;;
57443;SDS011;43289;52.962;6.196;2022-10-04T14:17:07;7.57;;;4.07;;
57443;SDS011;43289;52.962;6.196;2022-10-04T14:19:46;8.88;;;4.15;;
57443;SDS011;43289;52.962;6.196;2022-10-04T14:25:04;6.85;;;3.90;;
57443;SDS011;43289;52.962;6.196;2022-10-04T14:33:35;9.57;;;3.90;;
57443;SDS011;43289;52.962;6.196;2022-10-04T14:43:50;8.98;;;4.22;;
57443;SDS011;43289;52.962;6.196;2022-10-04T14:46:28;9.32;;;3.67;;
57443;SDS011;43289;52.962;6.196;2022-10-04T14:49:15;7.47;;;3.85;;
57443;SDS011;43289;52.962;6.196;2022-10-04T14:51:50;7.60;;;3.75;;
57443;SDS011;43289;52.962;6.196;2022-10-04T14:56:58;6.80;;;3.83;;
57443;SDS011;43289;52.962;6.196;2022-10-04T15:10:15;5.15;;;3.30;;
57443;SDS011;43289;52.962;6.196;2022-10-04T15:13:06;8.35;;;3.83;;
57443;SDS011;43289;52.962;6.196;2022-10-04T15:23:44;10.48;;;4.22;;
57443;SDS011;43289;52.962;6.196;2022-10-04T15:33:57;5.93;;;3.63;;
57443;SDS011;43289;52.962;6.196;2022-10-04T15:42:06;7.63;;;4.45;;
57443;SDS011;43289;52.962;6.196;2022-10-04T16:00:19;9.95;;;3.85;;
57443;SDS011;43289;52.962;6.196;2022-10-04T16:05:23;8.02;;;4.72;;
57443;SDS011;43289;52.962;6.196;2022-10-04T16:21:40;8.80;;;4.90;;
57443;SDS011;43289;52.962;6.196;2022-10-04T16:29:20;8.98;;;5.50;;
57443;SDS011;43289;52.962;6.196;2022-10-04T16:39:39;6.85;;;4.05;;
57443;SDS011;43289;52.962;6.196;2022-10-04T16:42:28;9.23;;;4.53;;
57443;SDS011;43289;52.962;6.196;2022-10-04T16:44:58;8.95;;;5.05;;
57443;SDS011;43289;52.962;6.196;2022-10-04T16:47:35;6.13;;;4.28;;
57443;SDS011;43289;52.962;6.196;2022-10-04T16:50:08;7.47;;;5.15;;
57443;SDS011;43289;52.962;6.196;2022-10-04T17:00:46;9.57;;;4.87;;
57443;SDS011;43289;52.962;6.196;2022-10-04T17:03:19;7.32;;;4.68;;
57443;SDS011;43289;52.962;6.196;2022-10-04T17:06:00;9.00;;;4.38;;
57443;SDS011;43289;52.962;6.196;2022-10-04T17:11:09;10.85;;;4.95;;
57443;SDS011;43289;52.962;6.196;2022-10-04T17:13:55;10.02;;;5.32;;
57443;SDS011;43289;52.962;6.196;2022-10-04T17:27:20;8.82;;;5.20;;
57443;SDS011;43289;52.962;6.196;2022-10-04T17:32:26;7.65;;;4.72;;
57443;SDS011;43289;52.962;6.196;2022-10-04T17:35:05;11.07;;;5.65;;
57443;SDS011;43289;52.962;6.196;2022-10-04T17:37:54;8.32;;;4.95;;
57443;SDS011;43289;52.962;6.196;2022-10-04T17:40:26;10.32;;;5.35;;
57443;SDS011;43289;52.962;6.196;2022-10-04T17:43:20;8.38;;;5.38;;
57443;SDS011;43289;52.962;6.196;2022-10-04T17:46:01;8.80;;;4.70;;
57443;SDS011;43289;52.962;6.196;2022-10-04T17:48:29;10.52;;;4.70;;
57443;SDS011;43289;52.962;6.196;2022-10-04T17:54:00;10.48;;;5.45;;
57443;SDS011;43289;52.962;6.196;2022-10-04T17:57:09;12.33;;;5.23;;
57443;SDS011;43289;52.962;6.196;2022-10-04T17:59:43;6.95;;;4.57;;
57443;SDS011;43289;52.962;6.196;2022-10-04T18:02:15;9.43;;;4.57;;
57443;SDS011;43289;52.962;6.196;2022-10-04T18:04:59;9.68;;;5.00;;
57443;SDS011;43289;52.962;6.196;2022-10-04T18:07:27;7.65;;;5.30;;
57443;SDS011;43289;52.962;6.196;2022-10-04T18:09:58;9.52;;;5.13;;
57443;SDS011;43289;52.962;6.196;2022-10-04T18:12:44;8.98;;;5.30;;
57443;SDS011;43289;52.962;6.196;2022-10-04T18:18:06;10.35;;;5.68;;
57443;SDS011;43289;52.962;6.196;2022-10-04T18:20:35;9.65;;;5.45;;
57443;SDS011;43289;52.962;6.196;2022-10-04T18:25:49;9.73;;;6.18;;
57443;SDS011;43289;52.962;6.196;2022-10-04T18:28:19;9.75;;;5.68;;
57443;SDS011;43289;52.962;6.196;2022-10-04T18:33:12;8.57;;;6.43;;
57443;SDS011;43289;52.962;6.196;2022-10-04T18:35:58;12.15;;;5.72;;
57443;SDS011;43289;52.962;6.196;2022-10-04T18:38:28;9.55;;;5.53;;
57443;SDS011;43289;52.962;6.196;2022-10-04T18:40:56;9.43;;;5.80;;
57443;SDS011;43289;52.962;6.196;2022-10-04T18:43:40;10.02;;;5.85;;
57443;SDS011;43289;52.962;6.196;2022-10-04T18:46:15;11.15;;;6.40;;
57443;SDS011;43289;52.962;6.196;2022-10-04T18:54:19;12.23;;;6.30;;
57443;SDS011;43289;52.962;6.196;2022-10-04T18:57:03;10.40;;;6.63;;
57443;SDS011;43289;52.962;6.196;2022-10-04T18:59:45;9.02;;;6.07;;
57443;SDS011;43289;52.962;6.196;2022-10-04T19:02:34;10.68;;;5.88;;
57443;SDS011;43289;52.962;6.196;2022-10-04T19:05:14;9.48;;;5.53;;
57443;SDS011;43289;52.962;6.196;2022-10-04T19:07:45;9.80;;;5.82;;
57443;SDS011;43289;52.962;6.196;2022-10-04T19:10:16;8.43;;;5.30;;
57443;SDS011;43289;52.962;6.196;2022-10-04T19:20:47;9.77;;;5.90;;
57443;SDS011;43289;52.962;6.196;2022-10-04T19:25:46;9.93;;;5.88;;
57443;SDS011;43289;52.962;6.196;2022-10-04T19:28:27;10.65;;;5.65;;
57443;SDS011;43289;52.962;6.196;2022-10-04T19:38:42;9.07;;;5.93;;
57443;SDS011;43289;52.962;6.196;2022-10-04T19:44:02;8.15;;;6.00;;
57443;SDS011;43289;52.962;6.196;2022-10-04T19:46:35;11.82;;;6.32;;
57443;SDS011;43289;52.962;6.196;2022-10-04T19:49:17;10.57;;;6.43;;
57443;SDS011;43289;52.962;6.196;2022-10-04T19:51:46;10.63;;;6.53;;
57443;SDS011;43289;52.962;6.196;2022-10-04T19:54:16;10.95;;;6.40;;
57443;SDS011;43289;52.962;6.196;2022-10-04T19:56:48;10.57;;;6.20;;
57443;SDS011;43289;52.962;6.196;2022-10-04T20:01:42;10.52;;;6.63;;
57443;SDS011;43289;52.962;6.196;2022-10-04T20:04:12;11.20;;;6.90;;
57443;SDS011;43289;52.962;6.196;2022-10-04T20:06:58;9.38;;;6.40;;
57443;SDS011;43289;52.962;6.196;2022-10-04T20:17:41;11.60;;;6.82;;
57443;SDS011;43289;52.962;6.196;2022-10-04T20:20:07;12.10;;;7.07;;
57443;SDS011;43289;52.962;6.196;2022-10-04T20:26:02;10.60;;;6.43;;
57443;SDS011;43289;52.962;6.196;2022-10-04T20:28:02;12.05;;;7.13;;
57443;SDS011;43289;52.962;6.196;2022-10-04T20:33:46;9.85;;;6.47;;
57443;SDS011;43289;52.962;6.196;2022-10-04T20:38:55;11.35;;;6.43;;
57443;SDS011;43289;52.962;6.196;2022-10-04T20:43:55;11.15;;;6.03;;
57443;SDS011;43289;52.962;6.196;2022-10-04T20:46:22;11.90;;;6.78;;
57443;SDS011;43289;52.962;6.196;2022-10-04T20:48:48;12.95;;;7.30;;
57443;SDS011;43289;52.962;6.196;2022-10-04T20:51:16;8.50;;;6.25;;
57443;SDS011;43289;52.962;6.196;2022-10-04T20:53:43;10.68;;;6.72;;
57443;SDS011;43289;52.962;6.196;2022-10-04T20:56:30;9.60;;;6.55;;
57443;SDS011;43289;52.962;6.196;2022-10-04T20:58:58;15.90;;;6.93;;
57443;SDS011;43289;52.962;6.196;2022-10-04T21:01:29;11.73;;;6.20;;
57443;SDS011;43289;52.962;6.196;2022-10-04T21:06:57;11.32;;;6.90;;
57443;SDS011;43289;52.962;6.196;2022-10-04T21:09:23;10.00;;;6.13;;
57443;SDS011;43289;52.962;6.196;2022-10-04T21:11:52;10.10;;;5.90;;
57443;SDS011;43289;52.962;6.196;2022-10-04T21:14:25;10.65;;;7.20;;
57443;SDS011;43289;52.962;6.196;2022-10-04T21:16:52;8.73;;;6.60;;
57443;SDS011;43289;52.962;6.196;2022-10-04T21:21:58;11.60;;;6.10;;
57443;SDS011;43289;52.962;6.196;2022-10-04T21:24:31;9.65;;;6.57;;
57443;SDS011;43289;52.962;6.196;2022-10-04T21:26:59;11.93;;;6.68;;
57443;SDS011;43289;52.962;6.196;2022-10-04T21:29:27;9.80;;;6.57;;
57443;SDS011;43289;52.962;6.196;2022-10-04T21:31:55;13.60;;;6.53;;
57443;SDS011;43289;52.962;6.196;2022-10-04T21:34:26;23.42;;;8.23;;
57443;SDS011;43289;52.962;6.196;2022-10-04T21:36:52;12.35;;;7.45;;
57443;SDS011;43289;52.962;6.196;2022-10-04T21:39:18;10.45;;;6.68;;
57443;SDS011;43289;52.962;6.196;2022-10-04T21:41:47;10.32;;;7.57;;
57443;SDS011;43289;52.962;6.196;2022-10-04T21:44:13;10.93;;;7.28;;
57443;SDS011;43289;52.962;6.196;2022-10-04T21:46:42;10.63;;;6.82;;
57443;SDS011;43289;52.962;6.196;2022-10-04T21:49:09;10.25;;;6.75;;
57443;SDS011;43289;52.962;6.196;2022-10-04T21:51:38;9.57;;;5.90;;
57443;SDS011;43289;52.962;6.196;2022-10-04T21:54:05;11.40;;;6.95;;
57443;SDS011;43289;52.962;6.196;2022-10-04T21:56:32;9.77;;;7.15;;
57443;SDS011;43289;52.962;6.196;2022-10-04T21:58:59;8.25;;;6.00;;
57443;SDS011;43289;52.962;6.196;2022-10-04T22:01:25;9.63;;;6.78;;
57443;SDS011;43289;52.962;6.196;2022-10-04T22:03:51;14.02;;;8.02;;
57443;SDS011;43289;52.962;6.196;2022-10-04T22:06:21;12.73;;;6.97;;
57443;SDS011;43289;52.962;6.196;2022-10-04T22:08:49;10.82;;;7.05;;
57443;SDS011;43289;52.962;6.196;2022-10-04T22:11:16;11.25;;;7.03;;
57443;SDS011;43289;52.962;6.196;2022-10-04T22:13:43;12.68;;;6.57;;
57443;SDS011;43289;52.962;6.196;2022-10-04T22:16:13;10.35;;;7.45;;
57443;SDS011;43289;52.962;6.196;2022-10-04T22:18:39;12.32;;;6.60;;
57443;SDS011;43289;52.962;6.196;2022-10-04T22:21:07;11.57;;;7.10;;
57443;SDS011;43289;52.962;6.196;2022-10-04T22:23:40;9.13;;;7.05;;
57443;SDS011;43289;52.962;6.196;2022-10-04T22:26:11;8.30;;;5.70;;
57443;SDS011;43289;52.962;6.196;2022-10-04T22:28:42;11.02;;;7.00;;
57443;SDS011;43289;52.962;6.196;2022-10-04T22:31:12;8.68;;;6.25;;
57443;SDS011;43289;52.962;6.196;2022-10-04T22:33:42;10.80;;;6.85;;
57443;SDS011;43289;52.962;6.196;2022-10-04T22:38:38;11.10;;;6.97;;
57443;SDS011;43289;52.962;6.196;2022-10-04T22:41:09;12.77;;;7.72;;
57443;SDS011;43289;52.962;6.196;2022-10-04T22:43:35;11.60;;;6.72;;
57443;SDS011;43289;52.962;6.196;2022-10-04T22:46:05;11.93;;;6.82;;
57443;SDS011;43289;52.962;6.196;2022-10-04T22:48:36;9.52;;;7.22;;
57443;SDS011;43289;52.962;6.196;2022-10-04T22:51:02;11.82;;;7.43;;
57443;SDS011;43289;52.962;6.196;2022-10-04T22:53:29;10.75;;;7.20;;
57443;SDS011;43289;52.962;6.196;2022-10-04T22:55:55;12.30;;;7.43;;
57443;SDS011;43289;52.962;6.196;2022-10-04T22:58:22;14.57;;;7.43;;
57443;SDS011;43289;52.962;6.196;2022-10-04T23:00:48;11.23;;;7.13;;
57443;SDS011;43289;52.962;6.196;2022-10-04T23:03:18;14.30;;;7.45;;
57443;SDS011;43289;52.962;6.196;2022-10-04T23:05:49;10.65;;;7.13;;
57443;SDS011;43289;52.962;6.196;2022-10-04T23:08:25;9.88;;;6.75;;
57443;SDS011;43289;52.962;6.196;2022-10-04T23:10:56;11.18;;;6.70;;
57443;SDS011;43289;52.962;6.196;2022-10-04T23:13:27;9.73;;;7.50;;
57443;SDS011;43289;52.962;6.196;2022-10-04T23:15:54;12.63;;;7.60;;
57443;SDS011;43289;52.962;6.196;2022-10-04T23:18:22;11.50;;;7.00;;
57443;SDS011;43289;52.962;6.196;2022-10-04T23:20:52;10.38;;;5.82;;
57443;SDS011;43289;52.962;6.196;2022-10-04T23:23:25;12.07;;;6.53;;
57443;SDS011;43289;52.962;6.196;2022-10-04T23:25:55;9.75;;;5.57;;
57443;SDS011;43289;52.962;6.196;2022-10-04T23:28:21;8.70;;;6.18;;
57443;SDS011;43289;52.962;6.196;2022-10-04T23:30:54;11.38;;;6.80;;
57443;SDS011;43289;52.962;6.196;2022-10-04T23:33:23;9.68;;;6.45;;
57443;SDS011;43289;52.962;6.196;2022-10-04T23:35:49;10.05;;;6.60;;
57443;SDS011;43289;52.962;6.196;2022-10-04T23:38:16;9.75;;;5.80;;
57443;SDS011;43289;52.962;6.196;2022-10-04T23:40:43;11.15;;;6.95;;
57443;SDS011;43289;52.962;6.196;2022-10-04T23:43:12;10.63;;;6.13;;
57443;SDS011;43289;52.962;6.196;2022-10-04T23:45:39;11.73;;;6.20;;
57443;SDS011;43289;52.962;6.196;2022-10-04T23:48:15;8.60;;;5.45;;
57443;SDS011;43289;52.962;6.196;2022-10-04T23:50:44;7.95;;;6.03;;
57443;SDS011;43289;52.962;6.196;2022-10-04T23:53:13;8.35;;;5.75;;
57443;SDS011;43289;52.962;6.196;2022-10-04T23:55:44;10.88;;;6.00;;
57443;SDS011;43289;52.962;6.196;2022-10-04T23:58:12;8.93;;;6.45;;
